sensor_id;sensor_type;location;lat;lon;timestamp;pressure;altitude;pressure_sealevel;temperature;humidity
55755;BME280;41674;52.290;-1.474;2023-03-03T00:01:57;102294.55;;;2.28;83.12
55755;BME280;41674;52.290;-1.474;2023-03-03T00:04:26;102292.74;;;3.02;80.06
55755;BME280;41674;52.290;-1.474;2023-03-03T00:06:56;102290.25;;;2.55;83.53
55755;BME280;41674;52.290;-1.474;2023-03-03T00:09:26;102295.17;;;2.09;84.75
55755;BME280;41674;52.290;-1.474;2023-03-03T00:11:57;102294.35;;;2.16;84.87
55755;BME280;41674;52.290;-1.474;2023-03-03T00:14:28;102301.83;;;1.11;88.96
55755;BME280;41674;52.290;-1.474;2023-03-03T00:16:55;102301.16;;;3.26;81.19
55755;BME280;41674;52.290;-1.474;2023-03-03T00:19:24;102305.64;;;3.77;78.66
55755;BME280;41674;52.290;-1.474;2023-03-03T00:21:56;102304.52;;;3.41;78.28
55755;BME280;41674;52.290;-1.474;2023-03-03T00:24:26;102303.59;;;3.44;77.50
55755;BME280;41674;52.290;-1.474;2023-03-03T00:26:54;102300.82;;;3.87;76.66
55755;BME280;41674;52.290;-1.474;2023-03-03T00:29:32;102300.05;;;1.97;85.81
55755;BME280;41674;52.290;-1.474;2023-03-03T00:31:52;102302.33;;;2.19;84.18
55755;BME280;41674;52.290;-1.474;2023-03-03T00:34:25;102298.87;;;2.17;84.93
55755;BME280;41674;52.290;-1.474;2023-03-03T00:36:52;102299.38;;;3.24;80.84
55755;BME280;41674;52.290;-1.474;2023-03-03T00:39:27;102299.54;;;3.30;80.11
55755;BME280;41674;52.290;-1.474;2023-03-03T00:41:51;102300.75;;;3.31;79.03
55755;BME280;41674;52.290;-1.474;2023-03-03T00:44:31;102298.23;;;3.89;77.63
55755;BME280;41674;52.290;-1.474;2023-03-03T00:46:50;102293.15;;;4.20;74.50
55755;BME280;41674;52.290;-1.474;2023-03-03T00:49:23;102289.27;;;4.68;74.81
55755;BME280;41674;52.290;-1.474;2023-03-03T00:51:50;102296.30;;;3.54;77.30
55755;BME280;41674;52.290;-1.474;2023-03-03T00:54:19;102292.72;;;4.11;76.34
55755;BME280;41674;52.290;-1.474;2023-03-03T00:56:49;102290.27;;;5.09;73.39
55755;BME280;41674;52.290;-1.474;2023-03-03T00:59:19;102292.53;;;3.85;75.64
55755;BME280;41674;52.290;-1.474;2023-03-03T01:01:48;102298.10;;;3.23;80.73
55755;BME280;41674;52.290;-1.474;2023-03-03T01:04:18;102299.99;;;3.55;77.58
55755;BME280;41674;52.290;-1.474;2023-03-03T01:06:47;102296.11;;;4.33;75.66
55755;BME280;41674;52.290;-1.474;2023-03-03T01:09:17;102293.98;;;4.18;75.57
55755;BME280;41674;52.290;-1.474;2023-03-03T01:11:46;102297.80;;;4.12;76.63
55755;BME280;41674;52.290;-1.474;2023-03-03T01:14:16;102294.22;;;4.06;76.31
55755;BME280;41674;52.290;-1.474;2023-03-03T01:16:46;102294.74;;;4.88;73.16
55755;BME280;41674;52.290;-1.474;2023-03-03T01:19:15;102300.90;;;3.63;76.62
55755;BME280;41674;52.290;-1.474;2023-03-03T01:21:45;102306.07;;;3.00;77.79
55755;BME280;41674;52.290;-1.474;2023-03-03T01:24:14;102306.00;;;3.13;78.78
55755;BME280;41674;52.290;-1.474;2023-03-03T01:26:44;102308.29;;;3.66;77.03
55755;BME280;41674;52.290;-1.474;2023-03-03T01:29:14;102306.37;;;3.98;74.78
55755;BME280;41674;52.290;-1.474;2023-03-03T01:31:43;102313.19;;;2.70;79.09
55755;BME280;41674;52.290;-1.474;2023-03-03T01:34:13;102315.40;;;2.75;80.28
55755;BME280;41674;52.290;-1.474;2023-03-03T01:36:43;102317.73;;;2.95;81.45
55755;BME280;41674;52.290;-1.474;2023-03-03T01:39:12;102319.27;;;2.38;81.76
55755;BME280;41674;52.290;-1.474;2023-03-03T01:41:42;102326.27;;;2.10;83.80
55755;BME280;41674;52.290;-1.474;2023-03-03T01:44:14;102323.63;;;1.43;85.40
55755;BME280;41674;52.290;-1.474;2023-03-03T01:46:49;102325.94;;;1.39;89.25
55755;BME280;41674;52.290;-1.474;2023-03-03T01:49:14;102326.99;;;1.45;87.80
55755;BME280;41674;52.290;-1.474;2023-03-03T01:51:47;102324.35;;;2.32;85.07
55755;BME280;41674;52.290;-1.474;2023-03-03T01:54:16;102324.23;;;2.21;84.72
55755;BME280;41674;52.290;-1.474;2023-03-03T01:56:41;102326.54;;;1.98;84.20
55755;BME280;41674;52.290;-1.474;2023-03-03T01:59:14;102327.80;;;1.00;91.67
55755;BME280;41674;52.290;-1.474;2023-03-03T02:01:40;102327.58;;;2.04;86.37
55755;BME280;41674;52.290;-1.474;2023-03-03T02:04:09;102320.03;;;2.56;82.24
55755;BME280;41674;52.290;-1.474;2023-03-03T02:06:42;102321.47;;;2.96;82.05
55755;BME280;41674;52.290;-1.474;2023-03-03T02:09:13;102322.21;;;2.00;82.58
55755;BME280;41674;52.290;-1.474;2023-03-03T02:11:41;102322.42;;;2.18;81.02
55755;BME280;41674;52.290;-1.474;2023-03-03T02:14:10;102322.65;;;2.84;79.25
55755;BME280;41674;52.290;-1.474;2023-03-03T02:16:39;102321.22;;;2.14;81.13
55755;BME280;41674;52.290;-1.474;2023-03-03T02:19:16;102328.99;;;3.58;77.19
55755;BME280;41674;52.290;-1.474;2023-03-03T02:21:38;102330.97;;;3.75;76.34
55755;BME280;41674;52.290;-1.474;2023-03-03T02:24:12;102327.05;;;4.51;73.45
55755;BME280;41674;52.290;-1.474;2023-03-03T02:26:39;102328.04;;;4.85;72.25
55755;BME280;41674;52.290;-1.474;2023-03-03T02:29:08;102327.06;;;4.85;71.69
55755;BME280;41674;52.290;-1.474;2023-03-03T02:31:37;102333.44;;;3.93;74.58
55755;BME280;41674;52.290;-1.474;2023-03-03T02:34:07;102337.19;;;3.53;77.53
55755;BME280;41674;52.290;-1.474;2023-03-03T02:36:38;102336.94;;;3.44;78.49
55755;BME280;41674;52.290;-1.474;2023-03-03T02:39:09;102333.69;;;3.36;78.87
55755;BME280;41674;52.290;-1.474;2023-03-03T02:41:39;102329.45;;;2.31;80.39
55755;BME280;41674;52.290;-1.474;2023-03-03T02:44:07;102327.17;;;2.85;82.38
55755;BME280;41674;52.290;-1.474;2023-03-03T02:46:36;102331.51;;;2.82;81.37
55755;BME280;41674;52.290;-1.474;2023-03-03T02:49:06;102338.51;;;0.74;90.47
55755;BME280;41674;52.290;-1.474;2023-03-03T02:51:34;102337.76;;;1.62;87.22
55755;BME280;41674;52.290;-1.474;2023-03-03T02:54:04;102338.44;;;1.77;87.31
55755;BME280;41674;52.290;-1.474;2023-03-03T02:56:33;102340.13;;;0.97;89.54
55755;BME280;41674;52.290;-1.474;2023-03-03T02:59:03;102341.18;;;1.05;87.55
55755;BME280;41674;52.290;-1.474;2023-03-03T03:01:33;102341.13;;;1.24;89.39
55755;BME280;41674;52.290;-1.474;2023-03-03T03:04:05;102344.49;;;1.24;88.77
55755;BME280;41674;52.290;-1.474;2023-03-03T03:06:32;102343.13;;;1.55;86.26
55755;BME280;41674;52.290;-1.474;2023-03-03T03:09:02;102343.32;;;1.70;86.02
55755;BME280;41674;52.290;-1.474;2023-03-03T03:11:31;102343.35;;;1.54;87.24
55755;BME280;41674;52.290;-1.474;2023-03-03T03:14:01;102342.94;;;2.00;84.34
55755;BME280;41674;52.290;-1.474;2023-03-03T03:16:31;102345.92;;;1.91;83.36
55755;BME280;41674;52.290;-1.474;2023-03-03T03:19:01;102339.72;;;2.32;82.01
55755;BME280;41674;52.290;-1.474;2023-03-03T03:21:31;102340.12;;;3.10;77.67
55755;BME280;41674;52.290;-1.474;2023-03-03T03:24:00;102339.94;;;2.04;81.78
55755;BME280;41674;52.290;-1.474;2023-03-03T03:26:29;102335.80;;;2.23;80.21
55755;BME280;41674;52.290;-1.474;2023-03-03T03:28:59;102335.94;;;2.00;81.61
55755;BME280;41674;52.290;-1.474;2023-03-03T03:31:29;102334.07;;;3.23;77.32
55755;BME280;41674;52.290;-1.474;2023-03-03T03:33:58;102332.31;;;3.14;79.08
55755;BME280;41674;52.290;-1.474;2023-03-03T03:36:28;102335.45;;;3.17;76.84
55755;BME280;41674;52.290;-1.474;2023-03-03T03:38:58;102335.48;;;3.52;75.23
55755;BME280;41674;52.290;-1.474;2023-03-03T03:41:27;102336.43;;;2.88;77.11
55755;BME280;41674;52.290;-1.474;2023-03-03T03:43:57;102334.05;;;2.79;77.73
55755;BME280;41674;52.290;-1.474;2023-03-03T03:46:27;102339.84;;;1.63;81.04
55755;BME280;41674;52.290;-1.474;2023-03-03T03:48:56;102334.51;;;2.27;80.36
55755;BME280;41674;52.290;-1.474;2023-03-03T03:51:26;102332.45;;;2.90;77.40
55755;BME280;41674;52.290;-1.474;2023-03-03T03:53:56;102334.57;;;1.68;84.29
55755;BME280;41674;52.290;-1.474;2023-03-03T03:56:26;102328.84;;;2.08;82.49
55755;BME280;41674;52.290;-1.474;2023-03-03T03:58:55;102324.66;;;2.01;82.83
55755;BME280;41674;52.290;-1.474;2023-03-03T04:01:25;102322.45;;;3.23;77.19
55755;BME280;41674;52.290;-1.474;2023-03-03T04:03:55;102321.90;;;4.04;74.54
55755;BME280;41674;52.290;-1.474;2023-03-03T04:06:25;102318.77;;;4.64;72.39
55755;BME280;41674;52.290;-1.474;2023-03-03T04:08:54;102322.82;;;4.18;72.24
55755;BME280;41674;52.290;-1.474;2023-03-03T04:11:24;102320.68;;;4.22;72.02
55755;BME280;41674;52.290;-1.474;2023-03-03T04:13:53;102316.92;;;4.64;70.86
55755;BME280;41674;52.290;-1.474;2023-03-03T04:16:23;102321.69;;;2.63;76.82
55755;BME280;41674;52.290;-1.474;2023-03-03T04:18:53;102321.51;;;4.20;73.11
55755;BME280;41674;52.290;-1.474;2023-03-03T04:21:22;102323.75;;;4.12;71.22
55755;BME280;41674;52.290;-1.474;2023-03-03T04:23:52;102322.48;;;3.91;74.12
55755;BME280;41674;52.290;-1.474;2023-03-03T04:26:21;102322.05;;;4.48;71.40
55755;BME280;41674;52.290;-1.474;2023-03-03T04:28:51;102322.02;;;3.83;71.90
55755;BME280;41674;52.290;-1.474;2023-03-03T04:31:21;102324.83;;;4.68;70.34
55755;BME280;41674;52.290;-1.474;2023-03-03T04:33:51;102327.10;;;3.66;72.90
55755;BME280;41674;52.290;-1.474;2023-03-03T04:36:21;102323.92;;;3.08;75.77
55755;BME280;41674;52.290;-1.474;2023-03-03T04:38:50;102326.66;;;2.39;78.33
55755;BME280;41674;52.290;-1.474;2023-03-03T04:41:19;102324.78;;;2.57;77.94
55755;BME280;41674;52.290;-1.474;2023-03-03T04:43:49;102330.73;;;2.44;80.54
55755;BME280;41674;52.290;-1.474;2023-03-03T04:46:19;102325.20;;;2.59;79.61
55755;BME280;41674;52.290;-1.474;2023-03-03T04:48:48;102327.97;;;2.52;79.53
55755;BME280;41674;52.290;-1.474;2023-03-03T04:51:18;102325.81;;;2.22;78.31
55755;BME280;41674;52.290;-1.474;2023-03-03T04:53:48;102333.45;;;0.40;86.34
55755;BME280;41674;52.290;-1.474;2023-03-03T04:56:17;102329.74;;;0.99;89.22
55755;BME280;41674;52.290;-1.474;2023-03-03T04:58:47;102332.55;;;0.96;89.15
55755;BME280;41674;52.290;-1.474;2023-03-03T05:01:17;102333.78;;;1.41;86.73
55755;BME280;41674;52.290;-1.474;2023-03-03T05:03:47;102336.81;;;0.92;90.24
55755;BME280;41674;52.290;-1.474;2023-03-03T05:06:16;102335.61;;;0.60;88.15
55755;BME280;41674;52.290;-1.474;2023-03-03T05:08:46;102333.54;;;1.26;87.44
55755;BME280;41674;52.290;-1.474;2023-03-03T05:11:16;102334.64;;;2.34;81.80
55755;BME280;41674;52.290;-1.474;2023-03-03T05:13:46;102333.89;;;2.15;81.52
55755;BME280;41674;52.290;-1.474;2023-03-03T05:16:15;102338.29;;;0.79;87.80
55755;BME280;41674;52.290;-1.474;2023-03-03T05:18:45;102337.85;;;0.64;90.31
55755;BME280;41674;52.290;-1.474;2023-03-03T05:21:14;102335.68;;;0.78;88.83
55755;BME280;41674;52.290;-1.474;2023-03-03T05:23:44;102339.55;;;0.91;87.27
55755;BME280;41674;52.290;-1.474;2023-03-03T05:26:14;102340.55;;;2.19;83.89
55755;BME280;41674;52.290;-1.474;2023-03-03T05:28:44;102337.31;;;0.43;88.50
55755;BME280;41674;52.290;-1.474;2023-03-03T05:31:13;102338.05;;;1.11;85.13
55755;BME280;41674;52.290;-1.474;2023-03-03T05:33:43;102341.62;;;0.96;87.60
55755;BME280;41674;52.290;-1.474;2023-03-03T05:36:13;102341.61;;;1.98;83.47
55755;BME280;41674;52.290;-1.474;2023-03-03T05:38:43;102345.85;;;1.74;84.98
55755;BME280;41674;52.290;-1.474;2023-03-03T05:41:12;102346.48;;;1.46;84.16
55755;BME280;41674;52.290;-1.474;2023-03-03T05:43:42;102347.71;;;2.67;80.79
55755;BME280;41674;52.290;-1.474;2023-03-03T05:46:12;102345.35;;;2.06;81.12
55755;BME280;41674;52.290;-1.474;2023-03-03T05:48:41;102348.42;;;1.12;86.84
55755;BME280;41674;52.290;-1.474;2023-03-03T05:51:11;102343.72;;;2.80;81.14
55755;BME280;41674;52.290;-1.474;2023-03-03T05:53:41;102346.17;;;3.42;76.31
55755;BME280;41674;52.290;-1.474;2023-03-03T05:56:11;102346.57;;;3.91;74.82
55755;BME280;41674;52.290;-1.474;2023-03-03T05:58:41;102344.00;;;4.27;72.99
55755;BME280;41674;52.290;-1.474;2023-03-03T06:01:10;102351.21;;;1.64;82.23
55755;BME280;41674;52.290;-1.474;2023-03-03T06:03:40;102347.44;;;3.56;75.33
55755;BME280;41674;52.290;-1.474;2023-03-03T06:06:09;102347.96;;;3.81;74.11
55755;BME280;41674;52.290;-1.474;2023-03-03T06:08:39;102345.02;;;4.22;73.38
55755;BME280;41674;52.290;-1.474;2023-03-03T06:11:10;102342.98;;;4.27;71.65
55755;BME280;41674;52.290;-1.474;2023-03-03T06:13:39;102346.12;;;4.25;71.05
55755;BME280;41674;52.290;-1.474;2023-03-03T06:16:08;102339.84;;;4.50;69.67
55755;BME280;41674;52.290;-1.474;2023-03-03T06:18:38;102346.65;;;4.35;71.36
55755;BME280;41674;52.290;-1.474;2023-03-03T06:21:07;102353.96;;;3.83;72.97
55755;BME280;41674;52.290;-1.474;2023-03-03T06:23:37;102355.84;;;2.75;80.21
55755;BME280;41674;52.290;-1.474;2023-03-03T06:26:08;102357.94;;;3.10;81.48
55755;BME280;41674;52.290;-1.474;2023-03-03T06:28:37;102356.53;;;3.58;80.30
55755;BME280;41674;52.290;-1.474;2023-03-03T06:31:07;102355.58;;;2.90;81.79
55755;BME280;41674;52.290;-1.474;2023-03-03T06:33:36;102361.58;;;3.62;79.89
55755;BME280;41674;52.290;-1.474;2023-03-03T06:36:11;102361.40;;;2.83;82.92
55755;BME280;41674;52.290;-1.474;2023-03-03T06:38:35;102361.58;;;3.49;81.19
55755;BME280;41674;52.290;-1.474;2023-03-03T06:41:05;102362.79;;;4.11;79.33
55755;BME280;41674;52.290;-1.474;2023-03-03T06:43:35;102361.78;;;3.04;82.47
55755;BME280;41674;52.290;-1.474;2023-03-03T06:46:05;102359.79;;;2.67;85.37
55755;BME280;41674;52.290;-1.474;2023-03-03T06:48:34;102356.01;;;2.90;84.45
55755;BME280;41674;52.290;-1.474;2023-03-03T06:51:15;102358.27;;;3.48;81.80
55755;BME280;41674;52.290;-1.474;2023-03-03T06:53:34;102358.90;;;4.46;78.14
55755;BME280;41674;52.290;-1.474;2023-03-03T06:56:07;102360.34;;;3.86;79.87
55755;BME280;41674;52.290;-1.474;2023-03-03T06:58:34;102360.47;;;3.54;80.68
55755;BME280;41674;52.290;-1.474;2023-03-03T07:01:10;102363.81;;;4.26;77.23
55755;BME280;41674;52.290;-1.474;2023-03-03T07:03:33;102365.52;;;4.45;76.19
55755;BME280;41674;52.290;-1.474;2023-03-03T07:06:12;102369.00;;;3.63;77.65
55755;BME280;41674;52.290;-1.474;2023-03-03T07:08:32;102367.61;;;5.06;74.59
55755;BME280;41674;52.290;-1.474;2023-03-03T07:11:07;102374.07;;;4.03;77.20
55755;BME280;41674;52.290;-1.474;2023-03-03T07:13:32;102376.17;;;3.95;77.98
55755;BME280;41674;52.290;-1.474;2023-03-03T07:16:09;102380.40;;;4.03;76.06
55755;BME280;41674;52.290;-1.474;2023-03-03T07:18:36;102382.05;;;3.14;79.47
55755;BME280;41674;52.290;-1.474;2023-03-03T07:23:35;102386.00;;;3.38;78.94
55755;BME280;41674;52.290;-1.474;2023-03-03T07:26:00;102386.02;;;3.59;79.98
55755;BME280;41674;52.290;-1.474;2023-03-03T07:28:32;102389.51;;;3.71;78.38
55755;BME280;41674;52.290;-1.474;2023-03-03T07:30:59;102391.27;;;3.60;79.22
55755;BME280;41674;52.290;-1.474;2023-03-03T07:33:33;102394.42;;;4.19;77.47
55755;BME280;41674;52.290;-1.474;2023-03-03T07:35:59;102394.45;;;2.99;79.88
55755;BME280;41674;52.290;-1.474;2023-03-03T07:38:33;102398.10;;;3.98;77.71
55755;BME280;41674;52.290;-1.474;2023-03-03T07:41:00;102399.79;;;4.12;77.21
55755;BME280;41674;52.290;-1.474;2023-03-03T07:43:32;102403.94;;;4.42;76.08
55755;BME280;41674;52.290;-1.474;2023-03-03T07:46:04;102404.38;;;4.76;74.05
55755;BME280;41674;52.290;-1.474;2023-03-03T07:48:32;102406.65;;;4.20;75.21
55755;BME280;41674;52.290;-1.474;2023-03-03T07:51:02;102407.51;;;4.55;74.29
55755;BME280;41674;52.290;-1.474;2023-03-03T07:53:29;102412.71;;;3.83;75.44
55755;BME280;41674;52.290;-1.474;2023-03-03T07:55:56;102413.30;;;4.24;74.97
55755;BME280;41674;52.290;-1.474;2023-03-03T07:58:34;102412.75;;;2.70;79.64
55755;BME280;41674;52.290;-1.474;2023-03-03T08:03:25;102414.24;;;3.54;76.07
55755;BME280;41674;52.290;-1.474;2023-03-03T08:05:55;102417.76;;;3.27;77.46
55755;BME280;41674;52.290;-1.474;2023-03-03T08:08:29;102416.05;;;2.96;79.13
55755;BME280;41674;52.290;-1.474;2023-03-03T08:10:55;102417.67;;;2.94;77.61
55755;BME280;41674;52.290;-1.474;2023-03-03T08:13:28;102418.04;;;3.32;77.71
55755;BME280;41674;52.290;-1.474;2023-03-03T08:15:58;102424.86;;;2.47;80.27
55755;BME280;41674;52.290;-1.474;2023-03-03T08:18:27;102426.53;;;1.65;84.79
55755;BME280;41674;52.290;-1.474;2023-03-03T08:20:55;102426.61;;;3.10;79.45
55755;BME280;41674;52.290;-1.474;2023-03-03T08:23:23;102429.05;;;2.63;79.35
55755;BME280;41674;52.290;-1.474;2023-03-03T08:25:53;102431.07;;;2.44;81.42
55755;BME280;41674;52.290;-1.474;2023-03-03T08:28:23;102438.34;;;1.90;81.56
55755;BME280;41674;52.290;-1.474;2023-03-03T08:30:52;102442.56;;;1.93;81.99
55755;BME280;41674;52.290;-1.474;2023-03-03T08:33:22;102445.80;;;1.97;82.16
55755;BME280;41674;52.290;-1.474;2023-03-03T08:35:52;102446.08;;;2.69;79.50
55755;BME280;41674;52.290;-1.474;2023-03-03T08:38:22;102444.50;;;3.45;76.48
55755;BME280;41674;52.290;-1.474;2023-03-03T08:40:51;102449.61;;;2.79;79.23
55755;BME280;41674;52.290;-1.474;2023-03-03T08:43:20;102452.23;;;2.10;82.08
55755;BME280;41674;52.290;-1.474;2023-03-03T08:45:51;102449.56;;;2.78;79.96
55755;BME280;41674;52.290;-1.474;2023-03-03T08:48:21;102443.76;;;3.51;76.25
55755;BME280;41674;52.290;-1.474;2023-03-03T08:50:49;102445.74;;;3.85;74.06
55755;BME280;41674;52.290;-1.474;2023-03-03T08:53:19;102448.42;;;4.51;71.65
55755;BME280;41674;52.290;-1.474;2023-03-03T08:55:49;102448.59;;;3.40;74.63
55755;BME280;41674;52.290;-1.474;2023-03-03T08:58:19;102448.87;;;3.72;73.35
55755;BME280;41674;52.290;-1.474;2023-03-03T09:00:48;102451.18;;;3.51;75.02
55755;BME280;41674;52.290;-1.474;2023-03-03T09:03:17;102452.08;;;4.02;73.15
55755;BME280;41674;52.290;-1.474;2023-03-03T09:05:46;102457.74;;;3.56;72.71
55755;BME280;41674;52.290;-1.474;2023-03-03T09:08:16;102458.42;;;4.46;71.65
55755;BME280;41674;52.290;-1.474;2023-03-03T09:10:45;102456.82;;;3.49;72.61
55755;BME280;41674;52.290;-1.474;2023-03-03T09:13:17;102459.75;;;4.40;70.36
55755;BME280;41674;52.290;-1.474;2023-03-03T09:15:46;102458.46;;;3.52;72.61
55755;BME280;41674;52.290;-1.474;2023-03-03T09:18:17;102452.85;;;4.06;73.69
55755;BME280;41674;52.290;-1.474;2023-03-03T09:20:45;102453.19;;;3.67;75.16
55755;BME280;41674;52.290;-1.474;2023-03-03T09:23:28;102450.91;;;4.39;71.93
55755;BME280;41674;52.290;-1.474;2023-03-03T09:25:43;102448.23;;;4.39;72.22
55755;BME280;41674;52.290;-1.474;2023-03-03T09:28:21;102445.41;;;3.29;75.50
55755;BME280;41674;52.290;-1.474;2023-03-03T09:30:48;102446.20;;;3.39;74.77
55755;BME280;41674;52.290;-1.474;2023-03-03T09:33:22;102451.31;;;4.20;72.48
55755;BME280;41674;52.290;-1.474;2023-03-03T09:35:42;102449.76;;;4.03;72.10
55755;BME280;41674;52.290;-1.474;2023-03-03T09:38:24;102451.80;;;4.51;71.56
55755;BME280;41674;52.290;-1.474;2023-03-03T09:40:52;102451.87;;;4.12;72.11
55755;BME280;41674;52.290;-1.474;2023-03-03T09:43:15;102454.63;;;3.68;73.97
55755;BME280;41674;52.290;-1.474;2023-03-03T09:45:47;102450.99;;;3.58;74.34
55755;BME280;41674;52.290;-1.474;2023-03-03T09:48:24;102454.63;;;3.05;75.71
55755;BME280;41674;52.290;-1.474;2023-03-03T09:50:47;102455.44;;;3.65;73.69
55755;BME280;41674;52.290;-1.474;2023-03-03T09:53:18;102454.74;;;4.86;69.52
55755;BME280;41674;52.290;-1.474;2023-03-03T09:55:46;102452.40;;;3.46;73.93
55755;BME280;41674;52.290;-1.474;2023-03-03T09:58:24;102457.67;;;3.80;74.36
55755;BME280;41674;52.290;-1.474;2023-03-03T10:00:44;102459.87;;;3.66;73.89
55755;BME280;41674;52.290;-1.474;2023-03-03T10:05:44;102457.25;;;3.29;72.15
55755;BME280;41674;52.290;-1.474;2023-03-03T10:08:23;102460.51;;;4.07;71.17
55755;BME280;41674;52.290;-1.474;2023-03-03T10:10:45;102462.68;;;3.86;70.43
55755;BME280;41674;52.290;-1.474;2023-03-03T10:13:15;102467.22;;;2.86;76.50
55755;BME280;41674;52.290;-1.474;2023-03-03T10:15:41;102465.29;;;3.65;71.78
55755;BME280;41674;52.290;-1.474;2023-03-03T10:18:14;102469.24;;;3.45;72.61
55755;BME280;41674;52.290;-1.474;2023-03-03T10:20:43;102471.44;;;3.95;70.40
55755;BME280;41674;52.290;-1.474;2023-03-03T10:23:12;102468.58;;;3.48;69.56
55755;BME280;41674;52.290;-1.474;2023-03-03T10:25:40;102468.18;;;4.39;67.00
55755;BME280;41674;52.290;-1.474;2023-03-03T10:28:18;102465.58;;;4.67;65.59
55755;BME280;41674;52.290;-1.474;2023-03-03T10:30:39;102468.72;;;3.36;70.45
55755;BME280;41674;52.290;-1.474;2023-03-03T10:33:07;102467.90;;;4.47;67.08
55755;BME280;41674;52.290;-1.474;2023-03-03T10:35:41;102470.80;;;4.53;68.92
55755;BME280;41674;52.290;-1.474;2023-03-03T10:38:11;102469.13;;;4.37;67.64
55755;BME280;41674;52.290;-1.474;2023-03-03T10:40:33;102473.05;;;4.76;65.55
55755;BME280;41674;52.290;-1.474;2023-03-03T10:43:11;102472.51;;;5.01;64.67
55755;BME280;41674;52.290;-1.474;2023-03-03T10:45:44;102474.12;;;4.62;63.27
55755;BME280;41674;52.290;-1.474;2023-03-03T10:48:10;102470.86;;;5.19;64.52
55755;BME280;41674;52.290;-1.474;2023-03-03T10:50:33;102476.34;;;4.21;66.20
55755;BME280;41674;52.290;-1.474;2023-03-03T10:53:11;102475.58;;;4.50;65.93
55755;BME280;41674;52.290;-1.474;2023-03-03T10:55:35;102482.42;;;3.72;66.89
55755;BME280;41674;52.290;-1.474;2023-03-03T10:58:11;102480.75;;;4.51;66.28
55755;BME280;41674;52.290;-1.474;2023-03-03T11:00:32;102482.64;;;4.73;66.05
55755;BME280;41674;52.290;-1.474;2023-03-03T11:05:33;102482.51;;;4.78;63.79
55755;BME280;41674;52.290;-1.474;2023-03-03T11:08:00;102485.25;;;4.69;64.53
55755;BME280;41674;52.290;-1.474;2023-03-03T11:10:39;102485.01;;;4.71;65.09
55755;BME280;41674;52.290;-1.474;2023-03-03T11:13:04;102487.26;;;4.50;66.19
55755;BME280;41674;52.290;-1.474;2023-03-03T11:15:35;102486.96;;;5.00;65.22
55755;BME280;41674;52.290;-1.474;2023-03-03T11:18:02;102485.58;;;4.08;68.37
55755;BME280;41674;52.290;-1.474;2023-03-03T11:20:32;102491.13;;;3.69;70.64
55755;BME280;41674;52.290;-1.474;2023-03-03T11:22:59;102494.63;;;3.42;70.35
55755;BME280;41674;52.290;-1.474;2023-03-03T11:25:27;102494.90;;;4.39;68.04
55755;BME280;41674;52.290;-1.474;2023-03-03T11:28:08;102495.62;;;3.89;69.35
55755;BME280;41674;52.290;-1.474;2023-03-03T11:30:30;102502.65;;;4.46;67.82
55755;BME280;41674;52.290;-1.474;2023-03-03T11:32:55;102502.73;;;4.09;67.38
55755;BME280;41674;52.290;-1.474;2023-03-03T11:37:59;102507.45;;;4.03;68.17
55755;BME280;41674;52.290;-1.474;2023-03-03T11:40:21;102512.38;;;3.16;71.40
55755;BME280;41674;52.290;-1.474;2023-03-03T11:42:55;102510.32;;;3.97;68.95
55755;BME280;41674;52.290;-1.474;2023-03-03T11:45:19;102512.18;;;4.90;66.75
55755;BME280;41674;52.290;-1.474;2023-03-03T11:47:53;102512.35;;;4.30;69.54
55755;BME280;41674;52.290;-1.474;2023-03-03T11:50:20;102507.36;;;3.52;70.60
55755;BME280;41674;52.290;-1.474;2023-03-03T11:52:51;102506.12;;;4.44;70.62
55755;BME280;41674;52.290;-1.474;2023-03-03T11:55:19;102506.73;;;4.23;70.33
55755;BME280;41674;52.290;-1.474;2023-03-03T11:57:47;102509.71;;;4.25;68.08
55755;BME280;41674;52.290;-1.474;2023-03-03T12:00:23;102504.63;;;4.84;66.44
55755;BME280;41674;52.290;-1.474;2023-03-03T12:02:53;102507.63;;;4.23;68.21
55755;BME280;41674;52.290;-1.474;2023-03-03T12:05:22;102503.09;;;4.16;69.95
55755;BME280;41674;52.290;-1.474;2023-03-03T12:07:48;102501.93;;;5.25;65.43
55755;BME280;41674;52.290;-1.474;2023-03-03T12:10:18;102505.55;;;4.16;66.58
55755;BME280;41674;52.290;-1.474;2023-03-03T12:12:43;102506.84;;;3.54;68.81
55755;BME280;41674;52.290;-1.474;2023-03-03T12:15:18;102506.47;;;4.46;67.78
55755;BME280;41674;52.290;-1.474;2023-03-03T12:17:53;102505.63;;;4.25;68.45
55755;BME280;41674;52.290;-1.474;2023-03-03T12:20:15;102502.72;;;4.03;69.06
55755;BME280;41674;52.290;-1.474;2023-03-03T12:22:41;102501.98;;;4.26;70.13
55755;BME280;41674;52.290;-1.474;2023-03-03T12:25:21;102501.71;;;3.72;73.66
55755;BME280;41674;52.290;-1.474;2023-03-03T12:27:42;102498.84;;;4.24;70.34
55755;BME280;41674;52.290;-1.474;2023-03-03T12:30:15;102496.83;;;3.63;72.54
55755;BME280;41674;52.290;-1.474;2023-03-03T12:32:50;102491.58;;;3.63;72.00
55755;BME280;41674;52.290;-1.474;2023-03-03T12:35:11;102493.87;;;3.04;74.06
55755;BME280;41674;52.290;-1.474;2023-03-03T12:37:47;102490.82;;;3.68;72.70
55755;BME280;41674;52.290;-1.474;2023-03-03T12:40:09;102490.63;;;4.47;69.67
55755;BME280;41674;52.290;-1.474;2023-03-03T12:42:45;102488.03;;;4.04;70.10
55755;BME280;41674;52.290;-1.474;2023-03-03T12:45:13;102489.81;;;4.64;67.97
55755;BME280;41674;52.290;-1.474;2023-03-03T12:47:37;102483.63;;;5.09;63.72
55755;BME280;41674;52.290;-1.474;2023-03-03T12:50:14;102486.95;;;4.53;65.58
55755;BME280;41674;52.290;-1.474;2023-03-03T12:52:38;102481.92;;;4.99;64.44
55755;BME280;41674;52.290;-1.474;2023-03-03T12:55:08;102476.90;;;5.34;64.00
55755;BME280;41674;52.290;-1.474;2023-03-03T12:57:37;102479.48;;;4.86;64.34
55755;BME280;41674;52.290;-1.474;2023-03-03T13:02:39;102481.17;;;4.24;64.44
55755;BME280;41674;52.290;-1.474;2023-03-03T13:05:06;102472.37;;;5.60;61.94
55755;BME280;41674;52.290;-1.474;2023-03-03T13:07:33;102476.92;;;4.90;63.82
55755;BME280;41674;52.290;-1.474;2023-03-03T13:10:06;102475.94;;;4.92;64.65
55755;BME280;41674;52.290;-1.474;2023-03-03T13:12:31;102470.83;;;5.11;65.12
55755;BME280;41674;52.290;-1.474;2023-03-03T13:15:03;102473.11;;;3.44;69.35
55755;BME280;41674;52.290;-1.474;2023-03-03T13:17:30;102472.92;;;4.15;69.41